createdAt,value
2022-07-31T00:02:28.636Z,1.50
2022-07-31T00:05:09.831Z,1.30
2022-07-31T00:11:52.993Z,1.58
2022-07-31T00:14:42.662Z,1.40
2022-07-31T00:17:40.642Z,1.27
2022-07-31T00:20:33.646Z,1.38
2022-07-31T00:23:37.753Z,1.40
2022-07-31T00:26:23.193Z,1.60
2022-07-31T00:29:00.637Z,1.60
2022-07-31T00:31:34.690Z,1.40
2022-07-31T00:34:09.693Z,1.60
2022-07-31T00:36:43.944Z,1.70
2022-07-31T00:39:14.401Z,1.52
2022-07-31T00:41:48.822Z,1.80
2022-07-31T00:44:18.993Z,1.35
2022-07-31T00:46:53.917Z,1.65
2022-07-31T00:49:26.341Z,1.58
2022-07-31T00:52:06.562Z,1.45
2022-07-31T00:54:37.609Z,1.58
2022-07-31T00:57:13.144Z,1.63
2022-07-31T00:59:54.761Z,1.40
2022-07-31T01:02:27.883Z,1.80
2022-07-31T01:04:58.216Z,1.67
2022-07-31T01:07:33.706Z,1.95
2022-07-31T01:10:11.389Z,2.00
2022-07-31T01:12:51.015Z,1.65
2022-07-31T01:15:28.033Z,1.60
2022-07-31T01:18:05.242Z,1.70
2022-07-31T01:20:38.284Z,1.80
2022-07-31T01:23:21.593Z,1.80
2022-07-31T01:26:36.789Z,1.80
2022-07-31T01:29:17.556Z,1.95
2022-07-31T01:31:56.554Z,1.80
2022-07-31T01:34:45.432Z,1.50
2022-07-31T01:37:25.618Z,1.80
2022-07-31T01:40:12.946Z,1.73
2022-07-31T01:42:50.340Z,1.80
2022-07-31T01:45:22.299Z,1.85
2022-07-31T01:47:57.218Z,1.60
2022-07-31T01:50:42.764Z,1.70
2022-07-31T01:53:20.899Z,1.70
2022-07-31T01:56:03.796Z,1.80
2022-07-31T01:58:41.484Z,2.00
2022-07-31T02:01:37.373Z,1.60
2022-07-31T02:04:20.316Z,1.98
2022-07-31T02:06:55.532Z,1.48
2022-07-31T02:09:26.616Z,1.58
2022-07-31T02:12:09.713Z,1.67
2022-07-31T02:17:24.030Z,1.65
2022-07-31T02:20:25.724Z,1.73
2022-07-31T02:22:56.963Z,1.83
2022-07-31T02:25:28.532Z,1.90
2022-07-31T02:28:26.375Z,1.65
2022-07-31T02:30:58.367Z,1.90
2022-07-31T02:33:36.435Z,1.60
2022-07-31T02:36:26.018Z,1.70
2022-07-31T02:39:00.889Z,1.60
2022-07-31T02:41:30.866Z,1.75
2022-07-31T02:44:04.243Z,1.67
2022-07-31T02:46:34.164Z,1.88
2022-07-31T02:49:05.919Z,1.80
2022-07-31T02:51:42.545Z,1.50
2022-07-31T02:54:18.566Z,1.73
2022-07-31T02:56:53.955Z,1.42
2022-07-31T02:59:32.551Z,1.70
2022-07-31T03:02:06.036Z,1.80
2022-07-31T03:04:46.159Z,1.50
2022-07-31T03:07:24.802Z,1.75
2022-07-31T03:10:06.997Z,1.67
2022-07-31T03:13:18.581Z,1.77
2022-07-31T03:16:09.387Z,1.70
2022-07-31T03:19:12.726Z,1.67
2022-07-31T03:21:46.391Z,1.70
2022-07-31T03:24:22.610Z,1.80
2022-07-31T03:26:54.115Z,1.70
2022-07-31T03:29:39.109Z,1.63
2022-07-31T03:32:21.105Z,1.90
2022-07-31T03:34:56.436Z,1.77
2022-07-31T03:37:28.997Z,2.00
2022-07-31T03:39:57.870Z,1.70
2022-07-31T03:42:34.086Z,1.90
2022-07-31T03:45:05.530Z,1.70
2022-07-31T03:47:39.024Z,1.50
2022-07-31T03:50:18.403Z,1.65
2022-07-31T03:52:53.488Z,1.63
2022-07-31T03:55:32.894Z,1.85
2022-07-31T03:58:04.391Z,1.42
2022-07-31T04:00:37.810Z,1.80
2022-07-31T04:03:18.329Z,1.70
2022-07-31T04:05:59.018Z,1.60
2022-07-31T04:08:32.795Z,1.65
2022-07-31T04:11:12.532Z,1.63
2022-07-31T04:13:47.382Z,1.80
2022-07-31T04:16:24.845Z,1.80
2022-07-31T04:19:02.122Z,1.80
2022-07-31T04:21:48.744Z,1.67
2022-07-31T04:24:24.157Z,1.65
2022-07-31T04:27:26.138Z,1.85
2022-07-31T04:30:00.162Z,1.60
2022-07-31T04:32:32.880Z,1.80
2022-07-31T04:35:10.467Z,1.70
2022-07-31T04:37:52.368Z,1.52
2022-07-31T04:40:32.277Z,1.88
2022-07-31T04:43:08.443Z,1.60
2022-07-31T04:45:48.602Z,1.70
2022-07-31T04:48:31.724Z,1.55
2022-07-31T04:51:25.218Z,1.67
2022-07-31T04:53:56.440Z,2.03
2022-07-31T04:56:34.462Z,1.70
2022-07-31T04:59:08.952Z,1.52
2022-07-31T05:01:47.284Z,1.67
2022-07-31T05:04:25.403Z,1.70
2022-07-31T05:07:05.430Z,1.80
2022-07-31T05:09:52.695Z,1.52
2022-07-31T05:13:06.652Z,1.60
2022-07-31T05:15:38.330Z,1.77
2022-07-31T05:18:14.581Z,1.80
2022-07-31T05:21:10.386Z,1.65
2022-07-31T05:24:33.640Z,1.88
2022-07-31T05:27:24.141Z,1.70
2022-07-31T05:29:57.216Z,1.65
2022-07-31T05:32:32.271Z,1.90
2022-07-31T05:35:04.010Z,1.75
2022-07-31T05:37:45.990Z,1.75
2022-07-31T05:40:27.078Z,1.70
2022-07-31T05:43:33.044Z,1.88
2022-07-31T05:46:18.720Z,1.50
2022-07-31T05:49:00.860Z,1.90
2022-07-31T05:51:53.403Z,1.67
2022-07-31T05:54:32.122Z,1.70
2022-07-31T05:57:34.907Z,1.80
2022-07-31T06:00:07.051Z,1.88
2022-07-31T06:02:46.367Z,1.88
2022-07-31T06:06:03.874Z,1.65
2022-07-31T06:08:38.510Z,1.83
2022-07-31T06:11:25.739Z,1.88
2022-07-31T06:14:03.040Z,1.88
2022-07-31T06:16:53.851Z,1.88
2022-07-31T06:19:27.711Z,1.77
2022-07-31T06:21:59.318Z,1.80
2022-07-31T06:24:33.949Z,1.80
2022-07-31T06:27:16.239Z,1.92
2022-07-31T06:30:04.058Z,1.60
2022-07-31T06:32:33.909Z,2.03
2022-07-31T06:35:05.960Z,1.70
2022-07-31T06:37:45.498Z,1.90
2022-07-31T06:40:16.202Z,1.70
2022-07-31T06:43:14.616Z,1.60
2022-07-31T06:46:15.987Z,1.63
2022-07-31T06:49:18.089Z,2.20
2022-07-31T06:51:48.024Z,1.52
2022-07-31T06:54:20.265Z,1.67
2022-07-31T06:56:59.663Z,1.65
2022-07-31T07:00:20.030Z,1.90
2022-07-31T07:03:36.124Z,1.80
2022-07-31T07:09:35.944Z,1.50
2022-07-31T07:12:21.483Z,2.13
2022-07-31T07:15:41.895Z,1.60
2022-07-31T07:18:26.150Z,1.60
2022-07-31T07:24:41.251Z,1.52
2022-07-31T07:27:58.140Z,1.50
2022-07-31T07:31:09.639Z,1.50
2022-07-31T07:38:27.129Z,1.65
2022-07-31T07:41:30.534Z,1.65
2022-07-31T07:44:32.977Z,1.77
2022-07-31T07:49:52.715Z,1.80
2022-07-31T07:53:18.640Z,1.70
2022-07-31T07:56:59.206Z,1.80
2022-07-31T08:01:29.019Z,1.38
2022-07-31T08:05:30.052Z,1.27
2022-07-31T08:13:40.824Z,1.67
2022-07-31T08:57:50.128Z,1.65
2022-07-31T09:06:00.527Z,1.50
2022-07-31T09:22:56.147Z,1.83
2022-07-31T09:34:30.896Z,1.67
2022-07-31T09:38:34.637Z,1.40
2022-07-31T09:42:16.158Z,1.85
2022-07-31T09:46:34.367Z,1.58
2022-07-31T10:01:06.222Z,1.83
2022-07-31T10:04:18.129Z,1.95
2022-07-31T10:10:54.957Z,2.00
2022-07-31T10:14:45.905Z,1.75
2022-07-31T10:19:24.381Z,1.63
2022-07-31T10:36:20.753Z,2.00
2022-07-31T10:50:50.212Z,1.60
2022-07-31T10:58:54.080Z,1.77
2022-07-31T11:12:41.089Z,1.77
2022-07-31T11:15:54.488Z,1.92
2022-07-31T11:19:01.738Z,2.00
2022-07-31T11:21:39.659Z,2.13
2022-07-31T11:24:25.248Z,2.00
2022-07-31T11:27:02.171Z,2.10
2022-07-31T11:30:03.108Z,2.00
2022-07-31T11:32:34.894Z,2.30
2022-07-31T11:35:20.447Z,2.28
2022-07-31T11:38:17.211Z,2.20
2022-07-31T11:41:06.430Z,2.10
2022-07-31T11:43:59.852Z,2.15
2022-07-31T11:51:29.883Z,2.00
2022-07-31T11:54:43.286Z,2.03
2022-07-31T11:57:53.368Z,2.03
2022-07-31T12:00:30.703Z,1.95
2022-07-31T12:03:25.973Z,1.95
2022-07-31T12:09:03.885Z,2.33
2022-07-31T12:11:38.777Z,2.08
2022-07-31T12:14:22.237Z,2.10
2022-07-31T12:17:11.357Z,2.30
2022-07-31T12:20:34.963Z,2.15
2022-07-31T12:23:38.741Z,1.98
2022-07-31T12:26:48.199Z,2.20
2022-07-31T12:30:01.161Z,2.40
2022-07-31T12:32:42.465Z,2.13
2022-07-31T12:35:56.518Z,2.00
2022-07-31T12:39:12.394Z,2.22
2022-07-31T12:42:02.342Z,2.17
2022-07-31T12:45:18.188Z,2.10
2022-07-31T12:48:02.972Z,2.40
2022-07-31T12:50:46.561Z,2.30
2022-07-31T12:53:39.889Z,2.33
2022-07-31T12:56:35.137Z,2.30
2022-07-31T12:59:42.445Z,2.20
2022-07-31T13:02:35.108Z,2.60
2022-07-31T13:05:22.438Z,2.22
2022-07-31T13:08:13.546Z,2.22
2022-07-31T13:10:54.473Z,2.40
2022-07-31T13:13:37.678Z,2.38
2022-07-31T13:16:10.601Z,2.25
2022-07-31T13:19:06.595Z,2.25
2022-07-31T13:21:57.266Z,2.30
2022-07-31T13:24:48.960Z,2.13
2022-07-31T13:27:25.280Z,2.30
2022-07-31T13:30:05.929Z,2.25
2022-07-31T13:33:02.935Z,2.70
2022-07-31T13:36:22.055Z,2.30
2022-07-31T13:39:37.003Z,2.53
2022-07-31T13:42:48.261Z,2.47
2022-07-31T13:46:03.275Z,2.35
2022-07-31T13:48:57.747Z,2.28
2022-07-31T13:51:47.790Z,2.60
2022-07-31T13:54:46.219Z,2.53
2022-07-31T13:57:46.227Z,2.60
2022-07-31T14:04:30.278Z,2.58
2022-07-31T14:08:30.037Z,2.58
2022-07-31T14:11:32.655Z,2.65
2022-07-31T14:14:25.791Z,2.72
2022-07-31T14:19:57.986Z,2.70
2022-07-31T14:22:50.392Z,2.70
2022-07-31T14:25:32.608Z,2.53
2022-07-31T14:28:19.784Z,2.70
2022-07-31T14:31:06.668Z,2.80
2022-07-31T14:33:54.838Z,2.80
2022-07-31T14:36:54.825Z,2.83
2022-07-31T14:39:53.909Z,2.40
2022-07-31T14:42:44.610Z,2.92
2022-07-31T14:46:09.528Z,2.55
2022-07-31T14:49:02.024Z,2.80
2022-07-31T14:52:04.403Z,2.83
2022-07-31T14:58:58.147Z,2.30
2022-07-31T15:02:29.066Z,2.72
2022-07-31T15:06:51.061Z,2.63
2022-07-31T15:09:02.943Z,2.55
2022-07-31T15:15:06.670Z,2.42
2022-07-31T15:18:03.073Z,2.60
2022-07-31T15:21:25.529Z,2.90
2022-07-31T15:27:56.851Z,2.60
2022-07-31T15:30:59.403Z,2.90
2022-07-31T15:34:44.972Z,2.70
2022-07-31T15:37:33.427Z,2.78
2022-07-31T15:41:13.272Z,2.97
2022-07-31T15:44:27.033Z,2.78
2022-07-31T15:48:09.603Z,3.00
2022-07-31T15:51:15.623Z,3.00
2022-07-31T15:54:13.299Z,2.83
2022-07-31T15:57:14.612Z,2.70
2022-07-31T16:00:06.442Z,2.78
2022-07-31T16:02:59.869Z,3.03
2022-07-31T16:16:38.975Z,3.00
2022-07-31T16:20:27.130Z,2.80
2022-07-31T16:23:55.336Z,2.75
2022-07-31T16:27:03.958Z,3.03
2022-07-31T16:30:02.645Z,2.90
2022-07-31T16:33:30.038Z,2.95
2022-07-31T16:36:53.094Z,2.90
2022-07-31T16:40:30.123Z,2.72
2022-07-31T16:46:45.370Z,2.70
2022-07-31T16:50:03.116Z,2.70
2022-07-31T16:54:50.482Z,2.80
2022-07-31T16:57:40.978Z,2.97
2022-07-31T17:04:44.536Z,2.58
2022-07-31T17:08:17.557Z,2.90
2022-07-31T17:11:04.132Z,2.95
2022-07-31T17:26:39.705Z,2.72
2022-07-31T17:38:49.515Z,2.80
2022-07-31T17:43:03.175Z,2.80
2022-07-31T17:50:07.247Z,2.90
2022-07-31T17:57:13.467Z,2.72
2022-07-31T18:00:10.375Z,3.00
2022-07-31T18:03:02.219Z,3.10
2022-07-31T18:05:46.747Z,2.87
2022-07-31T18:08:25.593Z,3.22
2022-07-31T18:11:10.220Z,2.70
2022-07-31T18:14:03.623Z,2.80
2022-07-31T18:16:37.557Z,2.85
2022-07-31T18:19:35.057Z,2.97
2022-07-31T18:22:08.902Z,3.15
2022-07-31T18:24:40.356Z,3.10
2022-07-31T18:27:16.903Z,3.00
2022-07-31T18:29:56.058Z,2.75
2022-07-31T18:32:28.395Z,2.90
2022-07-31T18:35:02.794Z,2.80
2022-07-31T18:37:34.261Z,3.22
2022-07-31T18:40:08.836Z,3.08
2022-07-31T18:42:39.007Z,2.70
2022-07-31T18:46:20.880Z,2.58
2022-07-31T18:49:02.581Z,2.20
2022-07-31T18:51:37.501Z,2.10
2022-07-31T18:54:09.647Z,2.22
2022-07-31T18:56:54.283Z,2.08
2022-07-31T18:59:34.383Z,1.90
2022-07-31T19:02:20.583Z,2.20
2022-07-31T19:04:54.387Z,2.20
2022-07-31T19:07:35.777Z,2.13
2022-07-31T19:10:39.200Z,1.67
2022-07-31T19:13:22.301Z,1.80
2022-07-31T19:16:02.944Z,1.90
2022-07-31T19:18:38.998Z,2.30
2022-07-31T19:21:41.347Z,1.83
2022-07-31T19:24:29.298Z,1.90
2022-07-31T19:27:18.069Z,1.83
2022-07-31T19:29:57.251Z,2.20
2022-07-31T19:32:30.478Z,2.10
2022-07-31T19:35:08.407Z,2.10
2022-07-31T19:37:50.563Z,2.00
2022-07-31T19:40:25.911Z,2.10
2022-07-31T19:43:05.624Z,2.00
2022-07-31T19:46:02.682Z,2.22
2022-07-31T19:49:00.438Z,2.00
2022-07-31T19:52:30.155Z,2.03
2022-07-31T19:55:36.190Z,1.75
2022-07-31T19:58:51.316Z,2.08
2022-07-31T20:06:10.787Z,1.95
2022-07-31T20:08:54.998Z,1.92
2022-07-31T20:11:53.829Z,1.85
2022-07-31T20:14:38.847Z,1.90
2022-07-31T20:17:54.946Z,2.10
2022-07-31T20:21:26.572Z,1.92
2022-07-31T20:24:37.711Z,2.05
2022-07-31T20:27:22.940Z,2.17
2022-07-31T20:30:15.290Z,2.25
2022-07-31T20:33:11.231Z,2.20
2022-07-31T20:37:01.204Z,1.88
2022-07-31T20:39:53.724Z,2.17
2022-07-31T20:42:42.820Z,2.10
2022-07-31T20:45:58.693Z,2.05
2022-07-31T20:49:35.022Z,2.10
2022-07-31T20:52:35.033Z,2.22
2022-07-31T20:55:47.326Z,2.22
2022-07-31T20:58:31.415Z,2.30
2022-07-31T21:01:22.446Z,2.20
2022-07-31T21:04:27.209Z,2.20
2022-07-31T21:07:21.935Z,2.30
2022-07-31T21:10:31.161Z,2.10
2022-07-31T21:13:31.196Z,2.15
2022-07-31T21:16:23.048Z,2.30
2022-07-31T21:19:18.811Z,2.50
2022-07-31T21:22:01.739Z,2.25
2022-07-31T21:25:26.446Z,2.42
2022-07-31T21:28:14.755Z,2.60
2022-07-31T21:31:31.117Z,2.40
2022-07-31T21:34:48.650Z,2.27
2022-07-31T21:37:59.382Z,2.25
2022-07-31T21:44:31.070Z,2.20
2022-07-31T21:47:16.980Z,2.30
2022-07-31T21:50:04.331Z,2.35
2022-07-31T21:52:42.725Z,2.80
2022-07-31T21:55:58.799Z,2.50
2022-07-31T21:58:34.962Z,2.60
2022-07-31T22:01:09.586Z,2.53
2022-07-31T22:03:50.451Z,2.65
2022-07-31T22:07:04.944Z,2.60
2022-07-31T22:16:30.831Z,2.53
2022-07-31T22:19:23.290Z,2.25
2022-07-31T22:27:30.288Z,2.55
2022-07-31T22:30:09.125Z,2.33
2022-07-31T22:33:50.092Z,2.60
2022-07-31T22:37:38.922Z,2.33
2022-07-31T22:40:27.549Z,2.33
2022-07-31T22:50:06.824Z,2.72
2022-07-31T22:57:36.637Z,2.53
2022-07-31T23:00:53.883Z,2.63
2022-07-31T23:07:37.714Z,2.80
2022-07-31T23:13:34.855Z,2.63
2022-07-31T23:16:37.023Z,2.55
2022-07-31T23:19:27.022Z,2.70
2022-07-31T23:22:13.041Z,2.78
2022-07-31T23:46:06.769Z,2.72
2022-07-31T23:50:08.980Z,2.53
